createdAt,value
2018-03-15T00:00:53.675Z,3.77
2018-03-15T00:03:26.920Z,4.40
2018-03-15T00:05:54.524Z,3.90
2018-03-15T00:08:22.050Z,4.17
2018-03-15T00:10:49.579Z,4.37
2018-03-15T00:13:17.151Z,4.20
2018-03-15T00:15:44.722Z,4.47
2018-03-15T00:18:12.548Z,4.47
2018-03-15T00:20:40.083Z,4.30
2018-03-15T00:23:07.657Z,4.60
2018-03-15T00:25:35.186Z,5.13
2018-03-15T00:28:02.755Z,4.57
2018-03-15T00:30:30.292Z,3.90
2018-03-15T00:32:57.872Z,4.47
2018-03-15T00:35:25.924Z,4.77
2018-03-15T00:37:53.458Z,4.73
2018-03-15T00:40:20.990Z,4.47
2018-03-15T00:42:49.045Z,4.93
2018-03-15T00:45:16.592Z,4.27
2018-03-15T00:47:44.172Z,4.67
2018-03-15T00:50:12.648Z,4.13
2018-03-15T00:52:40.402Z,5.00
2018-03-15T00:55:09.300Z,4.20
2018-03-15T00:57:36.839Z,4.70
2018-03-15T01:00:04.395Z,4.90
2018-03-15T01:02:32.146Z,4.33
2018-03-15T01:04:59.674Z,4.37
2018-03-15T01:07:27.252Z,4.03
2018-03-15T01:09:54.944Z,4.40
2018-03-15T01:12:22.495Z,4.50
2018-03-15T01:14:50.036Z,4.63
2018-03-15T01:17:18.840Z,3.60
2018-03-15T01:19:47.047Z,4.43
2018-03-15T01:22:14.623Z,4.23
2018-03-15T01:24:42.157Z,4.33
2018-03-15T01:27:10.547Z,4.27
2018-03-15T01:29:38.127Z,4.77
2018-03-15T01:32:06.133Z,4.40
2018-03-15T01:34:33.702Z,4.43
2018-03-15T01:37:01.252Z,4.90
2018-03-15T01:39:28.813Z,4.73
2018-03-15T01:41:56.746Z,4.50
2018-03-15T01:44:24.288Z,5.10
2018-03-15T01:46:51.867Z,5.00
2018-03-15T01:49:19.403Z,4.97
2018-03-15T01:51:46.988Z,5.00
2018-03-15T01:54:14.819Z,4.70
2018-03-15T01:56:42.350Z,4.80
2018-03-15T01:59:10.792Z,5.13
2018-03-15T02:01:38.371Z,4.67
2018-03-15T02:04:06.310Z,5.43
2018-03-15T02:06:33.878Z,4.63
2018-03-15T02:09:01.459Z,4.70
2018-03-15T02:11:28.996Z,5.43
2018-03-15T02:13:56.541Z,5.13
2018-03-15T02:16:24.370Z,4.73
2018-03-15T02:18:51.964Z,5.20
2018-03-15T02:21:20.362Z,4.73
2018-03-15T02:23:47.890Z,5.80
2018-03-15T02:26:15.476Z,5.47
2018-03-15T02:28:43.222Z,5.60
2018-03-15T02:31:10.809Z,5.60
2018-03-15T02:33:38.407Z,5.17
2018-03-15T02:36:05.951Z,6.43
2018-03-15T02:38:33.488Z,5.20
2018-03-15T02:41:01.446Z,5.77
2018-03-15T02:43:28.977Z,5.83
2018-03-15T02:45:56.554Z,5.60
2018-03-15T02:48:24.082Z,5.57
2018-03-15T02:50:51.611Z,5.23
2018-03-15T02:53:19.160Z,5.70
2018-03-15T02:55:46.746Z,5.57
2018-03-15T02:58:14.347Z,5.67
2018-03-15T03:00:41.923Z,5.93
2018-03-15T03:03:09.537Z,5.53
2018-03-15T03:05:37.058Z,5.37
2018-03-15T03:08:04.656Z,4.90
2018-03-15T03:10:32.204Z,5.40
2018-03-15T03:12:59.738Z,5.83
2018-03-15T03:15:27.323Z,5.07
2018-03-15T03:17:54.864Z,5.50
2018-03-15T03:20:22.399Z,5.33
2018-03-15T03:22:49.974Z,5.50
2018-03-15T03:25:18.309Z,5.57
2018-03-15T03:27:45.880Z,5.80
2018-03-15T03:30:13.414Z,4.97
2018-03-15T03:32:40.987Z,5.43
2018-03-15T03:35:08.518Z,5.40
2018-03-15T03:37:36.063Z,5.87
2018-03-15T03:40:03.670Z,6.20
2018-03-15T03:42:31.264Z,5.40
2018-03-15T03:44:59.720Z,5.67
2018-03-15T03:47:27.307Z,5.30
2018-03-15T03:49:54.884Z,5.20
2018-03-15T03:52:22.459Z,5.07
2018-03-15T03:54:50.037Z,5.47
2018-03-15T03:57:17.611Z,5.60
2018-03-15T03:59:45.148Z,5.17
2018-03-15T04:02:12.730Z,4.80
2018-03-15T04:04:40.281Z,5.40
2018-03-15T04:07:07.855Z,5.40
2018-03-15T04:09:35.717Z,5.37
2018-03-15T04:12:03.247Z,5.70
2018-03-15T04:14:30.937Z,5.53
2018-03-15T04:16:58.528Z,5.43
2018-03-15T04:19:26.634Z,5.50
2018-03-15T04:21:54.914Z,5.77
2018-03-15T04:24:22.582Z,5.83
2018-03-15T04:26:51.037Z,6.80
2018-03-15T04:29:18.602Z,6.43
2018-03-15T04:31:46.172Z,6.00
2018-03-15T04:34:13.712Z,6.10
2018-03-15T04:36:41.291Z,6.47
2018-03-15T04:39:09.826Z,6.27
2018-03-15T04:41:37.400Z,5.40
2018-03-15T04:44:04.939Z,6.03
2018-03-15T04:46:32.796Z,5.70
2018-03-15T04:49:00.377Z,5.93
2018-03-15T04:51:28.016Z,6.40
2018-03-15T04:53:55.609Z,5.80
2018-03-15T04:56:23.147Z,6.50
2018-03-15T04:58:50.683Z,6.50
2018-03-15T05:01:18.256Z,6.27
2018-03-15T05:03:46.099Z,6.47
2018-03-15T05:06:13.678Z,6.10
2018-03-15T05:08:41.260Z,6.20
2018-03-15T05:11:09.096Z,6.17
2018-03-15T05:13:36.631Z,6.57
2018-03-15T05:16:04.206Z,5.90
2018-03-15T05:18:31.791Z,6.33
2018-03-15T05:20:59.326Z,6.47
2018-03-15T05:23:27.715Z,6.40
2018-03-15T05:25:55.689Z,6.33
2018-03-15T05:28:23.228Z,6.43
2018-03-15T05:30:50.832Z,7.13
2018-03-15T05:33:18.401Z,6.60
2018-03-15T05:35:46.521Z,6.47
2018-03-15T05:38:14.115Z,6.00
2018-03-15T05:40:41.773Z,6.30
2018-03-15T05:43:09.600Z,6.67
2018-03-15T05:45:38.417Z,6.90
2018-03-15T05:48:05.962Z,6.78
2018-03-15T05:50:34.388Z,6.72
2018-03-15T05:53:02.790Z,6.00
2018-03-15T05:55:30.376Z,5.93
2018-03-15T05:57:57.963Z,6.85
2018-03-15T06:00:26.475Z,6.68
2018-03-15T06:02:54.084Z,6.37
2018-03-15T06:05:21.658Z,6.53
2018-03-15T06:07:49.222Z,6.47
2018-03-15T06:10:17.702Z,5.73
2018-03-15T06:12:45.350Z,6.03
2018-03-15T06:15:13.563Z,6.03
2018-03-15T06:17:41.152Z,6.73
2018-03-15T06:20:09.649Z,5.90
2018-03-15T06:22:37.828Z,6.50
2018-03-15T06:25:05.466Z,6.27
2018-03-15T06:27:33.057Z,6.27
2018-03-15T06:30:00.749Z,6.47
2018-03-15T06:32:28.411Z,6.82
2018-03-15T06:34:55.943Z,6.70
2018-03-15T06:37:23.552Z,6.60
2018-03-15T06:39:51.127Z,6.80
2018-03-15T06:42:18.752Z,6.72
2018-03-15T06:44:46.360Z,6.10
2018-03-15T06:47:15.014Z,6.87
2018-03-15T06:49:43.903Z,7.50
2018-03-15T06:52:12.422Z,6.90
2018-03-15T06:54:40.060Z,5.87
2018-03-15T06:57:07.634Z,6.00
2018-03-15T06:59:35.249Z,6.90
2018-03-15T07:02:02.832Z,7.20
2018-03-15T07:04:30.479Z,7.22
2018-03-15T07:06:58.023Z,6.27
2018-03-15T07:09:26.441Z,6.77
2018-03-15T07:11:54.038Z,7.43
2018-03-15T07:14:21.590Z,6.50
2018-03-15T07:16:49.185Z,6.80
2018-03-15T07:19:16.780Z,6.13
2018-03-15T07:21:44.335Z,6.30
2018-03-15T07:24:11.922Z,6.33
2018-03-15T07:26:39.522Z,6.30
2018-03-15T07:29:07.143Z,6.77
2018-03-15T07:31:34.724Z,6.70
2018-03-15T07:34:02.307Z,6.43
2018-03-15T07:36:29.843Z,6.00
2018-03-15T07:38:57.431Z,6.03
2018-03-15T07:41:25.024Z,5.35
2018-03-15T07:43:52.562Z,6.15
2018-03-15T07:46:20.143Z,5.50
2018-03-15T07:48:48.667Z,5.43
2018-03-15T07:51:16.224Z,5.60
2018-03-15T07:53:43.810Z,5.20
2018-03-15T07:56:11.459Z,5.62
2018-03-15T07:58:38.994Z,5.10
2018-03-15T08:01:07.512Z,4.37
2018-03-15T08:03:35.142Z,4.33
2018-03-15T08:06:02.747Z,4.43
2018-03-15T08:08:30.406Z,4.07
2018-03-15T08:10:57.983Z,4.40
2018-03-15T08:15:26.685Z,4.30
2018-03-15T08:17:54.960Z,4.00
2018-03-15T08:20:22.932Z,4.27
2018-03-15T08:22:50.687Z,4.15
2018-03-15T08:25:18.242Z,4.63
2018-03-15T08:27:45.859Z,5.53
2018-03-15T08:30:14.316Z,5.60
2018-03-15T08:32:42.029Z,5.63
2018-03-15T08:35:09.572Z,4.60
2018-03-15T08:37:37.169Z,4.83
2018-03-15T08:40:04.778Z,4.27
2018-03-15T08:42:33.791Z,4.07
2018-03-15T08:45:01.416Z,4.40
2018-03-15T08:47:28.976Z,4.60
2018-03-15T08:49:56.578Z,5.50
2018-03-15T08:52:24.135Z,3.78
2018-03-15T08:54:51.932Z,3.90
2018-03-15T08:57:19.698Z,3.60
2018-03-15T08:59:47.330Z,3.80
2018-03-15T09:02:15.189Z,3.50
2018-03-15T09:04:42.965Z,3.80
2018-03-15T09:07:10.563Z,3.20
2018-03-15T09:09:38.144Z,3.50
2018-03-15T09:12:05.767Z,3.80
2018-03-15T09:14:33.348Z,2.93
2018-03-15T09:17:00.998Z,3.20
2018-03-15T09:19:28.600Z,3.43
2018-03-15T09:21:56.196Z,3.30
2018-03-15T09:24:23.747Z,3.43
2018-03-15T09:26:51.344Z,3.60
2018-03-15T09:29:19.190Z,2.80
2018-03-15T09:31:46.788Z,3.63
2018-03-15T09:34:14.360Z,3.20
2018-03-15T09:36:42.514Z,3.00
2018-03-15T09:39:10.605Z,2.97
2018-03-15T09:41:38.175Z,3.20
2018-03-15T09:44:07.516Z,3.75
2018-03-15T09:46:35.207Z,3.27
2018-03-15T09:49:02.794Z,3.30
2018-03-15T09:51:30.385Z,4.00
2018-03-15T09:53:58.004Z,3.95
2018-03-15T09:56:26.214Z,2.77
2018-03-15T09:58:53.803Z,3.60
2018-03-15T10:01:21.405Z,3.17
2018-03-15T10:03:49.005Z,3.03
2018-03-15T10:06:16.624Z,3.10
2018-03-15T10:08:44.245Z,2.70
2018-03-15T10:11:11.962Z,3.33
2018-03-15T10:13:40.469Z,3.93
2018-03-15T10:16:08.491Z,3.80
2018-03-15T10:18:36.248Z,3.77
2018-03-15T10:21:03.888Z,3.20
2018-03-15T10:23:31.884Z,3.17
2018-03-15T10:25:59.491Z,3.03
2018-03-15T10:28:27.075Z,3.40
2018-03-15T10:30:55.449Z,5.63
2018-03-15T10:33:28.611Z,3.97
2018-03-15T10:35:56.381Z,3.30
2018-03-15T10:38:23.950Z,4.12
2018-03-15T10:40:53.561Z,3.40
2018-03-15T10:43:24.531Z,3.63
2018-03-15T10:45:52.137Z,3.77
2018-03-15T10:48:19.776Z,2.80
2018-03-15T10:50:47.544Z,4.50
2018-03-15T10:53:15.173Z,4.53
2018-03-15T10:55:42.747Z,3.30
2018-03-15T10:58:10.635Z,3.95
2018-03-15T11:00:43.885Z,4.53
2018-03-15T11:03:17.456Z,4.23
2018-03-15T11:05:48.418Z,4.77
2018-03-15T11:08:21.450Z,4.07
2018-03-15T11:10:49.323Z,4.35
2018-03-15T11:13:17.044Z,5.05
2018-03-15T11:15:44.612Z,4.30
2018-03-15T11:18:12.241Z,3.80
2018-03-15T11:20:40.817Z,3.00
2018-03-15T11:23:08.381Z,3.28
2018-03-15T11:25:36.045Z,4.43
2018-03-15T11:28:03.661Z,5.05
2018-03-15T11:30:31.461Z,4.43
2018-03-15T11:32:59.073Z,4.07
2018-03-15T11:35:26.645Z,4.18
2018-03-15T11:37:54.225Z,4.70
2018-03-15T11:40:21.860Z,5.72
2018-03-15T11:42:49.484Z,4.07
2018-03-15T11:45:17.887Z,3.63
2018-03-15T11:47:45.449Z,3.37
2018-03-15T11:50:13.614Z,4.10
2018-03-15T11:52:41.192Z,4.63
2018-03-15T11:55:08.803Z,5.07
2018-03-15T11:57:37.216Z,4.95
2018-03-15T12:00:04.855Z,4.83
2018-03-15T12:02:32.419Z,4.50
2018-03-15T12:05:00.057Z,5.37
2018-03-15T12:07:28.820Z,4.78
2018-03-15T12:09:56.495Z,3.33
2018-03-15T12:12:24.801Z,5.07
2018-03-15T12:14:52.367Z,5.03
2018-03-15T12:17:19.987Z,4.87
2018-03-15T12:19:47.584Z,4.55
2018-03-15T12:22:16.120Z,4.33
2018-03-15T12:24:43.678Z,4.10
2018-03-15T12:27:11.533Z,4.10
2018-03-15T12:29:39.966Z,3.53
2018-03-15T12:32:07.531Z,4.15
2018-03-15T12:34:35.123Z,4.47
2018-03-15T12:37:03.041Z,5.82
2018-03-15T12:39:31.606Z,5.07
2018-03-15T12:41:59.159Z,5.10
2018-03-15T12:44:26.787Z,4.60
2018-03-15T12:46:54.347Z,5.18
2018-03-15T12:49:21.940Z,5.22
2018-03-15T12:51:49.499Z,4.00
2018-03-15T12:54:17.104Z,4.27
2018-03-15T12:56:44.675Z,4.82
2018-03-15T12:59:12.236Z,4.25
2018-03-15T13:01:39.832Z,4.22
2018-03-15T13:04:07.396Z,4.13
2018-03-15T13:06:35.007Z,4.90
2018-03-15T13:09:02.588Z,3.93
2018-03-15T13:11:30.391Z,6.30
2018-03-15T13:13:59.255Z,4.13
2018-03-15T13:16:26.851Z,4.50
2018-03-15T13:18:55.167Z,4.45
2018-03-15T13:21:22.784Z,3.93
2018-03-15T13:23:51.216Z,5.17
2018-03-15T13:26:18.824Z,4.93
2018-03-15T13:28:46.585Z,4.00
2018-03-15T13:31:14.224Z,4.70
2018-03-15T13:33:41.977Z,3.60
2018-03-15T13:36:09.870Z,5.20
2018-03-15T13:38:37.447Z,3.30
2018-03-15T13:41:05.143Z,4.35
2018-03-15T13:43:32.700Z,4.30
2018-03-15T13:46:00.309Z,3.97
2018-03-15T13:48:27.940Z,5.43
2018-03-15T13:50:55.553Z,4.40
2018-03-15T13:53:23.143Z,4.68
2018-03-15T13:55:50.696Z,3.60
2018-03-15T13:58:18.314Z,3.00
2018-03-15T14:00:45.891Z,4.70
2018-03-15T14:03:14.470Z,5.50
2018-03-15T14:05:43.027Z,5.32
2018-03-15T14:08:10.576Z,4.78
2018-03-15T14:10:38.184Z,4.33
2018-03-15T14:13:06.549Z,4.07
2018-03-15T14:15:34.162Z,4.68
2018-03-15T14:18:01.754Z,4.70
2018-03-15T14:20:29.354Z,5.30
2018-03-15T14:22:57.017Z,4.87
2018-03-15T14:25:25.940Z,4.80
2018-03-15T14:27:53.483Z,3.67
2018-03-15T14:30:22.273Z,3.30
2018-03-15T14:32:49.867Z,4.30
2018-03-15T14:35:17.429Z,3.50
2018-03-15T14:37:45.198Z,3.27
2018-03-15T14:40:13.573Z,3.93
2018-03-15T14:42:41.147Z,3.87
2018-03-15T14:45:09.143Z,5.13
2018-03-15T14:47:36.743Z,3.20
2018-03-15T14:50:04.936Z,3.62
2018-03-15T14:52:33.188Z,3.07
2018-03-15T14:55:00.919Z,3.30
2018-03-15T14:57:28.460Z,3.43
2018-03-15T14:59:57.529Z,3.37
2018-03-15T15:02:25.148Z,3.67
2018-03-15T15:04:52.712Z,4.50
2018-03-15T15:07:21.237Z,3.87
2018-03-15T15:09:48.829Z,4.20
2018-03-15T15:12:16.717Z,4.10
2018-03-15T15:14:44.688Z,4.30
2018-03-15T15:17:12.224Z,4.10
2018-03-15T15:19:39.828Z,4.07
2018-03-15T15:22:08.357Z,4.60
2018-03-15T15:24:36.192Z,3.80
2018-03-15T15:27:04.311Z,4.17
2018-03-15T15:29:32.845Z,4.60
2018-03-15T15:32:00.536Z,5.57
2018-03-15T15:34:28.887Z,4.50
2018-03-15T15:36:56.630Z,5.90
2018-03-15T15:39:24.167Z,5.30
2018-03-15T15:41:52.182Z,4.60
2018-03-15T15:44:20.690Z,5.00
2018-03-15T15:46:48.842Z,6.40
2018-03-15T15:49:17.249Z,5.57
2018-03-15T15:51:45.056Z,5.37
2018-03-15T15:54:12.651Z,4.83
2018-03-15T15:56:40.200Z,5.43
2018-03-15T15:59:07.800Z,5.40
2018-03-15T16:01:35.368Z,5.47
2018-03-15T16:04:02.910Z,5.27
2018-03-15T16:06:30.514Z,4.97
2018-03-15T16:08:58.246Z,5.17
2018-03-15T16:11:26.567Z,5.57
2018-03-15T16:13:54.387Z,6.30
2018-03-15T16:16:23.306Z,6.90
2018-03-15T16:18:51.649Z,5.77
2018-03-15T16:21:19.593Z,5.83
2018-03-15T16:23:47.190Z,6.47
2018-03-15T16:26:15.367Z,7.00
2018-03-15T16:28:43.011Z,6.60
2018-03-15T16:31:10.559Z,7.60
2018-03-15T16:33:38.847Z,8.33
2018-03-15T16:36:06.415Z,8.30
2018-03-15T16:38:34.395Z,9.80
2018-03-15T16:41:02.001Z,10.90
2018-03-15T16:43:29.596Z,9.67
2018-03-15T16:45:57.501Z,13.10
2018-03-15T16:48:25.098Z,12.37
2018-03-15T16:50:52.640Z,9.03
2018-03-15T16:53:20.791Z,11.10
2018-03-15T16:55:48.692Z,9.50
2018-03-15T16:58:16.280Z,12.90
2018-03-15T17:00:43.832Z,10.80
2018-03-15T17:03:12.370Z,9.80
2018-03-15T17:05:40.544Z,12.20
2018-03-15T17:08:10.346Z,16.30
2018-03-15T17:10:38.400Z,17.23
2018-03-15T17:13:05.983Z,15.00
2018-03-15T17:15:33.574Z,16.90
2018-03-15T17:18:01.992Z,16.40
2018-03-15T17:20:29.615Z,16.23
2018-03-15T17:22:57.188Z,17.67
2018-03-15T17:25:24.743Z,15.93
2018-03-15T17:27:53.217Z,17.40
2018-03-15T17:30:21.459Z,16.13
2018-03-15T17:32:49.080Z,12.73
2018-03-15T17:35:17.288Z,12.80
2018-03-15T17:37:45.157Z,15.57
2018-03-15T17:40:12.724Z,14.90
2018-03-15T17:42:41.911Z,14.03
2018-03-15T17:45:11.215Z,14.60
2018-03-15T17:47:39.004Z,16.33
2018-03-15T17:50:07.134Z,14.57
2018-03-15T17:52:35.431Z,12.17
2018-03-15T17:55:03.256Z,10.33
2018-03-15T17:57:31.461Z,10.40
2018-03-15T18:00:01.362Z,8.97
2018-03-15T18:02:29.256Z,12.57
2018-03-15T18:04:57.029Z,11.80
2018-03-15T18:07:25.054Z,11.47
2018-03-15T18:09:53.206Z,11.30
2018-03-15T18:12:21.438Z,11.90
2018-03-15T18:14:49.534Z,14.70
2018-03-15T18:17:18.009Z,15.30
2018-03-15T18:19:46.690Z,16.17
2018-03-15T18:22:14.936Z,15.03
2018-03-15T18:24:45.095Z,13.03
2018-03-15T18:27:13.297Z,13.17
2018-03-15T18:29:41.975Z,15.10
2018-03-15T18:32:11.658Z,14.57
2018-03-15T18:34:40.032Z,15.37
2018-03-15T18:37:09.049Z,13.87
2018-03-15T18:39:36.891Z,14.13
2018-03-15T18:42:05.206Z,12.73
2018-03-15T18:44:34.691Z,12.27
2018-03-15T18:47:02.945Z,11.37
2018-03-15T18:49:32.035Z,11.47
2018-03-15T18:52:00.189Z,10.57
2018-03-15T18:54:29.082Z,8.63
2018-03-15T18:56:59.104Z,10.13
2018-03-15T18:59:26.843Z,8.77
2018-03-15T19:01:56.695Z,9.93
2018-03-15T19:04:24.794Z,8.90
2018-03-15T19:06:52.772Z,9.40
2018-03-15T19:09:20.757Z,8.70
2018-03-15T19:11:48.564Z,8.97
2018-03-15T19:14:16.832Z,9.00
2018-03-15T19:16:44.990Z,7.83
2018-03-15T19:19:13.512Z,7.67
2018-03-15T19:21:41.860Z,8.83
2018-03-15T19:24:10.432Z,7.43
2018-03-15T19:26:38.476Z,7.60
2018-03-15T19:29:07.953Z,8.43
2018-03-15T19:31:37.956Z,7.07
2018-03-15T19:34:06.631Z,8.00
2018-03-15T19:36:35.063Z,7.13
2018-03-15T19:39:03.454Z,6.27
2018-03-15T19:41:31.561Z,5.97
2018-03-15T19:44:00.166Z,6.77
2018-03-15T19:46:30.374Z,6.70
2018-03-15T19:48:58.855Z,6.50
2018-03-15T19:51:27.127Z,7.30
2018-03-15T19:53:55.816Z,6.13
2018-03-15T19:56:25.378Z,6.70
2018-03-15T19:58:55.043Z,5.77
2018-03-15T20:01:23.411Z,4.50
2018-03-15T20:03:51.672Z,4.80
2018-03-15T20:06:19.996Z,4.77
2018-03-15T20:08:48.233Z,4.27
2018-03-15T20:11:16.517Z,4.63
2018-03-15T20:13:44.466Z,4.50
2018-03-15T20:16:15.820Z,4.93
2018-03-15T20:18:44.202Z,4.80
2018-03-15T20:21:12.470Z,4.77
2018-03-15T20:23:46.389Z,5.00
2018-03-15T20:26:17.500Z,5.10
2018-03-15T20:28:45.375Z,6.50
2018-03-15T20:31:14.145Z,5.57
2018-03-15T20:33:47.912Z,5.37
2018-03-15T20:36:17.877Z,5.33
2018-03-15T20:38:45.763Z,6.00
2018-03-15T20:41:19.038Z,5.67
2018-03-15T20:43:46.612Z,6.33
2018-03-15T20:46:19.633Z,5.70
2018-03-15T20:48:52.731Z,5.97
2018-03-15T20:51:21.789Z,5.00
2018-03-15T20:53:49.396Z,6.90
2018-03-15T20:56:16.964Z,8.70
2018-03-15T20:58:44.931Z,7.80
2018-03-15T21:01:12.676Z,8.77
2018-03-15T21:03:41.285Z,10.07
2018-03-15T21:06:08.920Z,9.57
2018-03-15T21:08:38.916Z,8.33
2018-03-15T21:11:07.813Z,9.37
2018-03-15T21:13:35.426Z,12.13
2018-03-15T21:16:02.990Z,12.80
2018-03-15T21:18:31.388Z,12.43
2018-03-15T21:20:58.971Z,14.00
2018-03-15T21:23:27.817Z,15.57
2018-03-15T21:25:56.383Z,15.03
2018-03-15T21:28:24.783Z,16.03
2018-03-15T21:30:52.388Z,16.83
2018-03-15T21:33:21.317Z,18.70
2018-03-15T21:35:49.780Z,21.03
2018-03-15T21:38:17.396Z,21.30
2018-03-15T21:40:44.982Z,21.33
2018-03-15T21:43:13.420Z,17.60
2018-03-15T21:45:40.967Z,19.50
2018-03-15T21:48:08.592Z,17.90
2018-03-15T21:50:37.329Z,19.03
2018-03-15T21:53:06.483Z,18.13
2018-03-15T21:55:34.052Z,19.43
2018-03-15T21:58:02.347Z,22.67
2018-03-15T22:00:29.946Z,21.17
2018-03-15T22:02:57.669Z,19.80
2018-03-15T22:05:25.474Z,23.03
2018-03-15T22:07:53.364Z,23.27
2018-03-15T22:10:20.967Z,25.50
2018-03-15T22:12:48.510Z,23.43
2018-03-15T22:15:16.082Z,22.53
2018-03-15T22:17:43.855Z,23.20
2018-03-15T22:20:11.417Z,20.07
2018-03-15T22:22:39.165Z,26.67
2018-03-15T22:25:06.765Z,24.73
2018-03-15T22:27:34.368Z,23.67
2018-03-15T22:30:01.961Z,25.23
2018-03-15T22:32:29.618Z,24.70
2018-03-15T22:34:57.152Z,24.70
2018-03-15T22:37:25.262Z,23.80
2018-03-15T22:39:52.852Z,23.10
2018-03-15T22:42:20.461Z,24.20
2018-03-15T22:44:48.071Z,27.73
2018-03-15T22:47:15.672Z,24.97
2018-03-15T22:49:43.228Z,27.50
2018-03-15T22:52:10.840Z,28.73
2018-03-15T22:54:38.395Z,27.93
2018-03-15T22:57:05.964Z,32.20
2018-03-15T22:59:33.573Z,34.27
2018-03-15T23:02:01.115Z,30.63
2018-03-15T23:04:29.889Z,28.87
2018-03-15T23:06:57.483Z,27.87
2018-03-15T23:09:25.094Z,30.33
2018-03-15T23:11:52.677Z,31.83
2018-03-15T23:14:20.239Z,28.97
2018-03-15T23:16:48.107Z,27.00
2018-03-15T23:19:15.703Z,27.17
2018-03-15T23:21:43.271Z,28.07
2018-03-15T23:24:10.845Z,26.37
2018-03-15T23:26:39.250Z,26.00
2018-03-15T23:29:07.479Z,25.77
2018-03-15T23:31:35.037Z,25.93
2018-03-15T23:34:02.638Z,24.67
2018-03-15T23:36:30.222Z,25.53
2018-03-15T23:38:57.771Z,25.97
2018-03-15T23:41:25.364Z,24.67
2018-03-15T23:43:52.977Z,24.50
2018-03-15T23:46:20.533Z,22.50
2018-03-15T23:48:48.875Z,24.33
2018-03-15T23:51:16.478Z,22.53
2018-03-15T23:53:44.835Z,22.73
2018-03-15T23:56:13.354Z,23.17
2018-03-15T23:58:41.403Z,22.23
